EST,Max TemperatureF,Mean TemperatureF,Min TemperatureF,Max Dew PointF,MeanDew PointF,Min DewpointF,Max Humidity, Mean Humidity, Min Humidity, Max Sea Level PressureIn, Mean Sea Level PressureIn, Min Sea Level PressureIn, Max VisibilityMiles, Mean VisibilityMiles, Min VisibilityMiles, Max Wind SpeedMPH, Mean Wind SpeedMPH, Max Gust SpeedMPH,PrecipitationIn, CloudCover, Events, WindDirDegrees
2013-12-1,41,33,25,29,26,22,84,70,55,30.22,30.10,29.99,10,10,10,8,3,12,0.00,6,,129
2013-12-2,43,37,31,33,30,28,89,76,62,29.98,29.92,29.87,10,6,4,7,1,8,0.00,5,,2
2013-12-3,54,44,34,40,35,32,96,78,59,29.94,29.89,29.87,10,6,2,7,1,9,0.02,5,Rain,116
2013-12-4,60,48,35,47,41,34,92,75,57,29.99,29.90,29.83,10,8,2,12,4,15,0.00,4,,137
2013-12-5,62,49,36,57,47,30,90,75,60,30.14,29.92,29.82,10,8,2,15,8,20,0.30,7,Rain,250
2013-12-6,36,32,28,32,27,23,89,82,75,30.35,30.21,30.10,10,4,1,13,6,17,0.18,8,Rain-Snow,338
2013-12-7,28,21,13,25,15,10,88,72,55,30.65,30.51,30.32,10,9,5,15,6,21,T,3,Snow,320
2013-12-8,31,22,13,29,19,10,88,74,60,30.61,30.30,30.03,10,7,2,13,5,15,T,7,Snow,99
2013-12-9,37,33,28,34,28,19,96,80,63,30.19,30.06,29.95,10,7,2,17,7,24,0.25,8,Rain,219
2013-12-10,28,24,20,20,14,2,84,59,33,30.33,30.14,30.08,10,5,1,16,7,28,T,5,Snow,265
2013-12-11,31,24,17,19,13,9,68,59,49,30.45,30.36,30.27,10,9,2,17,6,23,T,5,Snow,267
2013-12-12,21,14,7,9,2,-5,73,54,34,30.54,30.44,30.32,10,10,10,14,6,22,T,2,,261
2013-12-13,35,27,18,21,11,3,75,59,43,30.31,30.28,30.23,10,10,10,10,3,14,0.06,3,,233
2013-12-14,38,33,28,36,29,19,92,78,63,30.25,29.93,29.67,10,4,1,9,3,13,0.49,8,Rain-Snow,119
2013-12-15,37,29,21,34,20,9,92,75,57,30.11,29.90,29.68,10,9,2,20,10,29,0.02,8,Rain-Snow,274
2013-12-16,26,23,19,23,15,9,81,68,55,30.22,30.10,30.01,10,6,0,12,3,15,T,8,Fog-Snow,201
2013-12-17,32,29,26,28,22,19,92,81,69,30.12,30.02,29.94,10,6,1,13,6,20,0.05,7,Snow,257
2013-12-18,33,28,22,21,18,14,81,70,58,30.23,30.17,30.08,10,10,4,13,7,18,0.03,6,Snow,222
2013-12-19,49,40,30,31,23,15,76,61,45,30.12,30.07,30.02,10,10,10,13,4,18,0.00,1,,165
2013-12-20,56,47,37,50,39,25,83,61,39,30.00,29.93,29.88,10,10,10,16,8,24,T,8,Rain,194
2013-12-21,66,61,55,60,55,49,93,83,72,29.86,29.78,29.53,10,6,2,20,8,30,1.28,8,Rain,181
2013-12-22,70,59,48,58,50,41,84,70,55,29.99,29.78,29.49,10,9,2,28,11,46,0.42,7,Rain,225
2013-12-23,49,40,30,41,28,18,89,72,54,30.34,30.19,29.98,10,10,4,15,8,22,0.07,8,Rain,284
2013-12-24,30,22,14,21,13,5,81,70,58,30.61,30.39,30.27,10,7,1,17,7,26,T,7,Snow,289
2013-12-25,30,21,11,21,12,7,84,65,46,30.56,30.40,30.22,10,10,10,13,3,20,0.00,5,,175
2013-12-26,37,33,28,25,20,13,78,58,38,30.37,30.25,30.12,10,9,2,21,7,30,T,6,Snow,238
2013-12-27,44,36,28,26,22,17,78,63,48,30.40,30.33,30.28,10,10,10,10,4,16,0.00,4,,215
2013-12-28,52,45,37,28,25,22,59,50,41,30.26,30.19,30.05,10,10,10,14,6,22,0.00,0,,186
2013-12-29,44,41,37,40,35,25,93,71,49,30.03,29.82,29.73,10,8,3,17,3,25,0.27,8,Rain,262
2013-12-30,38,31,23,28,19,11,85,70,55,30.26,30.13,29.91,10,8,2,20,6,26,T,8,Rain-Snow,330
2013-12-31,27,24,21,18,15,10,74,67,59,30.35,30.21,30.08,10,7,2,22,7,32,T,7,Snow,257